sensor_id;sensor_type;location;lat;lon;timestamp;temperature;humidity
40434;DHT22;26146;51.114;5.654;2023-04-01T00:03:19;11.30;99.90
40434;DHT22;26146;51.114;5.654;2023-04-01T00:07:21;11.30;99.90
40434;DHT22;26146;51.114;5.654;2023-04-01T00:11:23;11.40;99.90
40434;DHT22;26146;51.114;5.654;2023-04-01T00:15:24;11.30;99.90
40434;DHT22;26146;51.114;5.654;2023-04-01T00:19:25;11.30;99.90
40434;DHT22;26146;51.114;5.654;2023-04-01T00:23:26;11.20;99.90
40434;DHT22;26146;51.114;5.654;2023-04-01T00:27:27;11.30;99.90
40434;DHT22;26146;51.114;5.654;2023-04-01T00:31:28;11.40;99.90
40434;DHT22;26146;51.114;5.654;2023-04-01T00:35:29;11.40;99.90
40434;DHT22;26146;51.114;5.654;2023-04-01T00:39:33;11.40;99.90
40434;DHT22;26146;51.114;5.654;2023-04-01T00:43:34;11.20;99.90
40434;DHT22;26146;51.114;5.654;2023-04-01T00:47:36;11.20;99.90
40434;DHT22;26146;51.114;5.654;2023-04-01T00:51:37;11.30;99.90
40434;DHT22;26146;51.114;5.654;2023-04-01T00:55:42;11.30;99.90
40434;DHT22;26146;51.114;5.654;2023-04-01T00:59:48;11.20;99.90
40434;DHT22;26146;51.114;5.654;2023-04-01T01:03:50;11.00;99.90
40434;DHT22;26146;51.114;5.654;2023-04-01T01:08:15;11.00;99.90
40434;DHT22;26146;51.114;5.654;2023-04-01T01:12:35;11.10;99.90
40434;DHT22;26146;51.114;5.654;2023-04-01T01:16:48;11.10;99.90
40434;DHT22;26146;51.114;5.654;2023-04-01T01:38:13;11.20;99.90
40434;DHT22;26146;51.114;5.654;2023-04-01T01:42:17;11.10;99.90
40434;DHT22;26146;51.114;5.654;2023-04-01T01:46:21;11.10;99.90
40434;DHT22;26146;51.114;5.654;2023-04-01T01:50:23;11.10;99.90
40434;DHT22;26146;51.114;5.654;2023-04-01T01:54:25;11.10;99.90
40434;DHT22;26146;51.114;5.654;2023-04-01T01:58:39;11.20;99.90
40434;DHT22;26146;51.114;5.654;2023-04-01T02:02:46;11.10;99.90
40434;DHT22;26146;51.114;5.654;2023-04-01T02:07:02;11.10;99.90
40434;DHT22;26146;51.114;5.654;2023-04-01T02:11:11;11.00;99.90
40434;DHT22;26146;51.114;5.654;2023-04-01T02:15:14;11.10;99.90
40434;DHT22;26146;51.114;5.654;2023-04-01T02:19:17;11.20;99.90
40434;DHT22;26146;51.114;5.654;2023-04-01T02:23:23;11.20;99.90
40434;DHT22;26146;51.114;5.654;2023-04-01T02:27:24;11.20;99.90
40434;DHT22;26146;51.114;5.654;2023-04-01T02:31:25;11.30;99.90
40434;DHT22;26146;51.114;5.654;2023-04-01T02:35:27;11.30;99.90
40434;DHT22;26146;51.114;5.654;2023-04-01T02:39:28;11.40;99.90
40434;DHT22;26146;51.114;5.654;2023-04-01T02:43:29;11.50;99.90
40434;DHT22;26146;51.114;5.654;2023-04-01T02:47:30;11.50;99.90
40434;DHT22;26146;51.114;5.654;2023-04-01T02:51:32;11.50;99.90
40434;DHT22;26146;51.114;5.654;2023-04-01T02:55:33;11.30;99.90
40434;DHT22;26146;51.114;5.654;2023-04-01T02:59:34;11.40;99.90
40434;DHT22;26146;51.114;5.654;2023-04-01T03:03:35;11.40;99.90
40434;DHT22;26146;51.114;5.654;2023-04-01T03:07:36;11.40;99.90
40434;DHT22;26146;51.114;5.654;2023-04-01T03:11:40;11.10;99.90
40434;DHT22;26146;51.114;5.654;2023-04-01T03:15:41;11.20;99.90
40434;DHT22;26146;51.114;5.654;2023-04-01T03:19:42;11.20;99.90
40434;DHT22;26146;51.114;5.654;2023-04-01T03:23:43;11.30;99.90
40434;DHT22;26146;51.114;5.654;2023-04-01T03:27:44;11.20;99.90
40434;DHT22;26146;51.114;5.654;2023-04-01T03:31:45;11.20;99.90
40434;DHT22;26146;51.114;5.654;2023-04-01T03:35:46;11.20;99.90
40434;DHT22;26146;51.114;5.654;2023-04-01T03:39:55;11.30;99.90
40434;DHT22;26146;51.114;5.654;2023-04-01T03:43:55;11.20;99.90
40434;DHT22;26146;51.114;5.654;2023-04-01T03:47:56;11.20;99.90
40434;DHT22;26146;51.114;5.654;2023-04-01T03:51:58;11.20;99.90
40434;DHT22;26146;51.114;5.654;2023-04-01T03:56:03;11.20;99.90
40434;DHT22;26146;51.114;5.654;2023-04-01T04:00:04;11.20;99.90
40434;DHT22;26146;51.114;5.654;2023-04-01T04:04:05;11.20;99.90
40434;DHT22;26146;51.114;5.654;2023-04-01T04:08:06;11.20;99.90
40434;DHT22;26146;51.114;5.654;2023-04-01T04:12:07;11.00;99.90
40434;DHT22;26146;51.114;5.654;2023-04-01T04:16:09;11.00;99.90
40434;DHT22;26146;51.114;5.654;2023-04-01T04:20:10;11.00;99.90
40434;DHT22;26146;51.114;5.654;2023-04-01T04:24:12;11.00;99.90
40434;DHT22;26146;51.114;5.654;2023-04-01T04:28:12;10.90;99.90
40434;DHT22;26146;51.114;5.654;2023-04-01T04:32:15;10.90;99.90
40434;DHT22;26146;51.114;5.654;2023-04-01T04:36:17;11.00;99.90
40434;DHT22;26146;51.114;5.654;2023-04-01T04:40:21;10.90;99.90
40434;DHT22;26146;51.114;5.654;2023-04-01T04:44:22;10.80;99.90
40434;DHT22;26146;51.114;5.654;2023-04-01T04:48:23;10.80;99.90
40434;DHT22;26146;51.114;5.654;2023-04-01T04:52:41;11.00;99.90
40434;DHT22;26146;51.114;5.654;2023-04-01T04:57:02;10.90;99.90
40434;DHT22;26146;51.114;5.654;2023-04-01T05:01:13;10.90;99.90
40434;DHT22;26146;51.114;5.654;2023-04-01T05:05:15;11.00;99.90
40434;DHT22;26146;51.114;5.654;2023-04-01T05:09:16;11.10;99.90
40434;DHT22;26146;51.114;5.654;2023-04-01T05:13:17;11.00;99.90
40434;DHT22;26146;51.114;5.654;2023-04-01T05:17:18;11.00;99.90
40434;DHT22;26146;51.114;5.654;2023-04-01T05:21:19;11.10;99.90
40434;DHT22;26146;51.114;5.654;2023-04-01T05:25:22;11.00;99.90
40434;DHT22;26146;51.114;5.654;2023-04-01T05:29:24;11.10;99.90
40434;DHT22;26146;51.114;5.654;2023-04-01T05:33:25;11.00;99.90
40434;DHT22;26146;51.114;5.654;2023-04-01T05:37:26;10.90;99.90
40434;DHT22;26146;51.114;5.654;2023-04-01T05:41:27;10.80;99.90
40434;DHT22;26146;51.114;5.654;2023-04-01T05:45:30;10.80;99.90
40434;DHT22;26146;51.114;5.654;2023-04-01T05:49:33;10.80;99.90
40434;DHT22;26146;51.114;5.654;2023-04-01T05:53:36;10.90;99.90
40434;DHT22;26146;51.114;5.654;2023-04-01T05:57:37;10.80;99.90
40434;DHT22;26146;51.114;5.654;2023-04-01T06:01:38;10.70;99.90
40434;DHT22;26146;51.114;5.654;2023-04-01T06:05:42;10.80;99.90
40434;DHT22;26146;51.114;5.654;2023-04-01T06:09:44;10.70;99.90
40434;DHT22;26146;51.114;5.654;2023-04-01T06:22:39;10.60;99.90
40434;DHT22;26146;51.114;5.654;2023-04-01T06:35:39;10.80;99.90
40434;DHT22;26146;51.114;5.654;2023-04-01T06:40:18;10.50;99.90
40434;DHT22;26146;51.114;5.654;2023-04-01T06:57:02;10.50;99.90
40434;DHT22;26146;51.114;5.654;2023-04-01T07:01:09;10.60;99.90
40434;DHT22;26146;51.114;5.654;2023-04-01T07:05:12;10.70;99.90
40434;DHT22;26146;51.114;5.654;2023-04-01T07:09:22;10.60;99.90
40434;DHT22;26146;51.114;5.654;2023-04-01T07:14:02;10.50;99.90
40434;DHT22;26146;51.114;5.654;2023-04-01T07:17:59;10.50;99.90
40434;DHT22;26146;51.114;5.654;2023-04-01T07:26:23;10.70;99.90
40434;DHT22;26146;51.114;5.654;2023-04-01T07:30:24;10.70;99.90
40434;DHT22;26146;51.114;5.654;2023-04-01T07:39:03;10.90;99.90
40434;DHT22;26146;51.114;5.654;2023-04-01T07:47:59;10.80;99.90
40434;DHT22;26146;51.114;5.654;2023-04-01T07:52:25;10.60;99.90
40434;DHT22;26146;51.114;5.654;2023-04-01T07:57:19;10.70;99.90
40434;DHT22;26146;51.114;5.654;2023-04-01T08:01:22;10.60;99.90
40434;DHT22;26146;51.114;5.654;2023-04-01T08:05:29;10.70;99.90
40434;DHT22;26146;51.114;5.654;2023-04-01T08:09:44;10.70;99.90
40434;DHT22;26146;51.114;5.654;2023-04-01T08:18:51;10.90;99.90
40434;DHT22;26146;51.114;5.654;2023-04-01T08:23:26;10.90;99.90
40434;DHT22;26146;51.114;5.654;2023-04-01T08:27:45;11.10;99.90
40434;DHT22;26146;51.114;5.654;2023-04-01T08:32:05;11.30;99.90
40434;DHT22;26146;51.114;5.654;2023-04-01T08:58:55;11.30;99.90
40434;DHT22;26146;51.114;5.654;2023-04-01T09:16:03;11.30;99.90
40434;DHT22;26146;51.114;5.654;2023-04-01T09:28:52;11.00;99.90
40434;DHT22;26146;51.114;5.654;2023-04-01T09:42:14;11.40;99.90
40434;DHT22;26146;51.114;5.654;2023-04-01T09:46:20;11.40;99.90
40434;DHT22;26146;51.114;5.654;2023-04-01T09:50:32;11.40;99.90
40434;DHT22;26146;51.114;5.654;2023-04-01T09:54:51;11.50;99.90
40434;DHT22;26146;51.114;5.654;2023-04-01T10:12:40;12.00;99.90
40434;DHT22;26146;51.114;5.654;2023-04-01T10:56:23;12.70;99.90
40434;DHT22;26146;51.114;5.654;2023-04-01T11:18:40;12.50;99.90
40434;DHT22;26146;51.114;5.654;2023-04-01T11:26:52;12.50;99.90
40434;DHT22;26146;51.114;5.654;2023-04-01T12:10:05;13.10;99.90
40434;DHT22;26146;51.114;5.654;2023-04-01T12:31:31;14.10;99.90
40434;DHT22;26146;51.114;5.654;2023-04-01T12:57:51;14.40;99.90
40434;DHT22;26146;51.114;5.654;2023-04-01T13:15:28;13.10;99.90
40434;DHT22;26146;51.114;5.654;2023-04-01T13:19:42;12.90;99.90
40434;DHT22;26146;51.114;5.654;2023-04-01T13:50:23;12.40;99.90
40434;DHT22;26146;51.114;5.654;2023-04-01T14:11:36;12.00;99.90
40434;DHT22;26146;51.114;5.654;2023-04-01T14:20:17;11.90;99.90
40434;DHT22;26146;51.114;5.654;2023-04-01T14:24:44;11.90;99.90
40434;DHT22;26146;51.114;5.654;2023-04-01T14:29:29;11.90;99.90
40434;DHT22;26146;51.114;5.654;2023-04-01T14:38:04;12.10;99.90
40434;DHT22;26146;51.114;5.654;2023-04-01T14:51:20;11.70;99.90
40434;DHT22;26146;51.114;5.654;2023-04-01T14:59:45;11.50;99.90
40434;DHT22;26146;51.114;5.654;2023-04-01T15:08:15;11.70;99.90
40434;DHT22;26146;51.114;5.654;2023-04-01T15:25:13;12.30;99.90
40434;DHT22;26146;51.114;5.654;2023-04-01T15:38:51;11.80;99.90
40434;DHT22;26146;51.114;5.654;2023-04-01T15:42:51;11.80;99.90
40434;DHT22;26146;51.114;5.654;2023-04-01T15:46:55;11.70;99.90
40434;DHT22;26146;51.114;5.654;2023-04-01T16:13:04;11.60;99.90
40434;DHT22;26146;51.114;5.654;2023-04-01T16:21:41;11.30;99.90
40434;DHT22;26146;51.114;5.654;2023-04-01T16:25:49;11.20;99.90
40434;DHT22;26146;51.114;5.654;2023-04-01T16:30:35;10.90;99.90
40434;DHT22;26146;51.114;5.654;2023-04-01T16:38:33;10.90;99.90
40434;DHT22;26146;51.114;5.654;2023-04-01T16:42:58;11.00;99.90
40434;DHT22;26146;51.114;5.654;2023-04-01T16:47:09;11.10;99.90
40434;DHT22;26146;51.114;5.654;2023-04-01T16:51:15;10.80;99.90
40434;DHT22;26146;51.114;5.654;2023-04-01T16:55:18;10.90;99.90
40434;DHT22;26146;51.114;5.654;2023-04-01T16:59:34;11.00;99.90
40434;DHT22;26146;51.114;5.654;2023-04-01T17:03:46;11.10;99.90
40434;DHT22;26146;51.114;5.654;2023-04-01T17:08:28;11.40;99.90
40434;DHT22;26146;51.114;5.654;2023-04-01T17:21:22;11.10;99.90
40434;DHT22;26146;51.114;5.654;2023-04-01T17:30:12;11.10;99.90
40434;DHT22;26146;51.114;5.654;2023-04-01T17:51:36;11.00;99.90
40434;DHT22;26146;51.114;5.654;2023-04-01T18:00:28;11.00;99.90
40434;DHT22;26146;51.114;5.654;2023-04-01T18:25:54;11.00;99.90
40434;DHT22;26146;51.114;5.654;2023-04-01T18:30:13;11.00;99.90
40434;DHT22;26146;51.114;5.654;2023-04-01T18:34:40;11.00;99.90
40434;DHT22;26146;51.114;5.654;2023-04-01T18:43:32;10.50;99.90
40434;DHT22;26146;51.114;5.654;2023-04-01T18:52:20;10.60;99.90
40434;DHT22;26146;51.114;5.654;2023-04-01T18:56:30;10.40;99.90
40434;DHT22;26146;51.114;5.654;2023-04-01T19:00:38;10.50;99.90
40434;DHT22;26146;51.114;5.654;2023-04-01T19:08:54;10.40;99.90
40434;DHT22;26146;51.114;5.654;2023-04-01T19:21:37;10.30;99.90
40434;DHT22;26146;51.114;5.654;2023-04-01T19:25:54;10.30;99.90
40434;DHT22;26146;51.114;5.654;2023-04-01T19:34:37;10.40;99.90
40434;DHT22;26146;51.114;5.654;2023-04-01T19:38:50;10.50;99.90
40434;DHT22;26146;51.114;5.654;2023-04-01T19:55:39;10.60;99.90
40434;DHT22;26146;51.114;5.654;2023-04-01T19:59:54;10.70;99.90
40434;DHT22;26146;51.114;5.654;2023-04-01T20:04:08;10.90;99.90
40434;DHT22;26146;51.114;5.654;2023-04-01T20:17:23;10.70;99.90
40434;DHT22;26146;51.114;5.654;2023-04-01T20:21:45;10.60;99.90
40434;DHT22;26146;51.114;5.654;2023-04-01T20:43:54;10.50;99.90
40434;DHT22;26146;51.114;5.654;2023-04-01T20:52:25;10.50;99.90
40434;DHT22;26146;51.114;5.654;2023-04-01T21:01:00;10.40;99.90
40434;DHT22;26146;51.114;5.654;2023-04-01T21:09:21;10.30;99.90
40434;DHT22;26146;51.114;5.654;2023-04-01T21:39:53;10.00;99.90
40434;DHT22;26146;51.114;5.654;2023-04-01T21:44:24;10.00;99.90
40434;DHT22;26146;51.114;5.654;2023-04-01T21:56:55;9.70;99.90
40434;DHT22;26146;51.114;5.654;2023-04-01T22:01:31;9.60;99.90
40434;DHT22;26146;51.114;5.654;2023-04-01T22:05:40;9.50;99.90
40434;DHT22;26146;51.114;5.654;2023-04-01T22:18:22;9.50;99.90
40434;DHT22;26146;51.114;5.654;2023-04-01T22:30:58;9.40;99.90
40434;DHT22;26146;51.114;5.654;2023-04-01T22:35:28;9.50;99.90
40434;DHT22;26146;51.114;5.654;2023-04-01T22:43:47;9.50;99.90
40434;DHT22;26146;51.114;5.654;2023-04-01T22:56:16;9.30;99.90
40434;DHT22;26146;51.114;5.654;2023-04-01T23:00:32;9.20;99.90
40434;DHT22;26146;51.114;5.654;2023-04-01T23:04:42;9.10;99.90
40434;DHT22;26146;51.114;5.654;2023-04-01T23:12:58;9.10;99.90
40434;DHT22;26146;51.114;5.654;2023-04-01T23:21:36;8.80;99.90
40434;DHT22;26146;51.114;5.654;2023-04-01T23:29:50;8.50;99.90
40434;DHT22;26146;51.114;5.654;2023-04-01T23:34:24;8.50;99.90
40434;DHT22;26146;51.114;5.654;2023-04-01T23:38:26;8.50;99.90
40434;DHT22;26146;51.114;5.654;2023-04-01T23:42:32;8.40;99.90
40434;DHT22;26146;51.114;5.654;2023-04-01T23:46:40;8.50;99.90
40434;DHT22;26146;51.114;5.654;2023-04-01T23:50:41;8.40;99.90
40434;DHT22;26146;51.114;5.654;2023-04-01T23:54:58;8.40;99.90
40434;DHT22;26146;51.114;5.654;2023-04-01T23:59:02;8.30;99.90
